Time;durP1;ratioP1;P1;durP2;ratioP2;P2;SDS_P1;SDS_P2;PMS_P1;PMS_P2;Temp;Humidity;BMP_temperature;BMP_pressure;BME280_temperature;BME280_humidity;BME280_pressure;Samples;Min_cycle;Max_cycle;Signal;HPM_P1;HPM_P2
2022/07/22 00:00:51;;;;;;;;;;;;;;;29.17;38.37;100811.35;104842;1306;61304;-81
2022/07/22 00:03:17;;;;;;;;;;;;;;;29.17;38.40;100807.94;104829;1306;61250;-81
2022/07/22 00:05:42;;;;;;;;;;;;;;;29.16;38.40;100809.24;104839;1305;61289;-81
2022/07/22 00:08:08;;;;;;;;;;;;;;;29.16;38.46;100811.22;104828;1306;61268;-81
2022/07/22 00:10:33;;;;;;;;;;;;;;;29.16;38.47;100818.67;104842;1305;61269;-81
2022/07/22 00:12:59;;;;;;;;;;;;;;;29.16;38.36;100821.17;104865;1305;61368;-81
2022/07/22 00:15:24;;;;;;;;;;;;;;;29.16;38.41;100826.61;104863;1305;61307;-81
2022/07/22 00:17:50;;;;;;;;;;;;;;;29.16;38.69;100827.16;104850;1306;61266;-81
2022/07/22 00:20:15;;;;;;;;;;;;;;;29.16;38.64;100830.69;104886;1306;61234;-82
2022/07/22 00:22:41;;;;;;;;;;;;;;;29.16;38.48;100830.67;104834;1305;61288;-80
2022/07/22 00:25:06;;;;;;;;;;;;;;;29.16;38.39;100827.25;104816;1306;61309;-81
2022/07/22 00:27:32;;;;;;;;;;;;;;;29.15;38.65;100825.48;104882;1306;61223;-81
2022/07/22 00:29:57;;;;;;;;;;;;;;;29.15;38.50;100824.73;104827;1306;61240;-82
2022/07/22 00:32:23;;;;;;;;;;;;;;;29.15;38.47;100825.34;104860;1303;61425;-81
2022/07/22 00:34:48;;;;;;;;;;;;;;;29.15;38.45;100825.85;104838;1306;61253;-81
2022/07/22 00:37:14;;;;;;;;;;;;;;;29.15;38.65;100823.70;104829;1306;61288;-81
2022/07/22 00:39:39;;;;;;;;;;;;;;;29.14;38.56;100823.02;104911;1305;62456;-81
2022/07/22 00:42:05;;;;;;;;;;;;;;;29.14;38.83;100826.30;104870;1306;62351;-81
2022/07/22 00:44:31;;;;;;;;;;;;;;;29.14;38.79;100828.13;104790;1305;61355;-81
2022/07/22 00:46:56;;;;;;;;;;;;;;;29.14;38.32;100827.41;104847;1306;61300;-81
2022/07/22 00:49:22;;;;;;;;;;;;;;;29.14;38.76;100827.23;104829;1306;61749;-81
2022/07/22 00:51:47;;;;;;;;;;;;;;;29.14;38.50;100828.36;104878;1306;61365;-81
2022/07/22 00:54:13;;;;;;;;;;;;;;;29.13;38.55;100829.35;104876;1304;61269;-81
2022/07/22 00:56:38;;;;;;;;;;;;;;;29.14;38.58;100831.45;104864;1306;61294;-81
2022/07/22 00:59:04;;;;;;;;;;;;;;;29.13;38.45;100826.45;104838;1306;61322;-81
2022/07/22 01:01:30;;;;;;;;;;;;;;;29.13;38.65;100825.40;104835;1306;61252;-81
2022/07/22 01:03:56;;;;;;;;;;;;;;;29.12;38.32;100825.60;104846;1306;61272;-81
2022/07/22 01:06:21;;;;;;;;;;;;;;;29.13;38.60;100823.73;104825;1306;61296;-81
2022/07/22 01:08:48;;;;;;;;;;;;;;;29.12;38.56;100824.16;104888;1304;61407;-81
2022/07/22 01:11:14;;;;;;;;;;;;;;;29.12;38.55;100825.08;104887;1306;72246;-81
2022/07/22 01:13:39;;;;;;;;;;;;;;;29.12;38.45;100824.58;104914;1306;61947;-81
2022/07/22 01:16:05;;;;;;;;;;;;;;;29.12;38.66;100826.92;104840;1306;61301;-81
2022/07/22 01:18:31;;;;;;;;;;;;;;;29.12;38.48;100828.89;104787;1306;61394;-82
2022/07/22 01:20:56;;;;;;;;;;;;;;;29.11;38.58;100831.14;104827;1305;61696;-82
2022/07/22 01:23:22;;;;;;;;;;;;;;;29.12;38.50;100831.81;104917;1306;61262;-82
2022/07/22 01:25:47;;;;;;;;;;;;;;;29.12;38.66;100834.02;104854;1306;75606;-83
2022/07/22 01:28:13;;;;;;;;;;;;;;;29.11;38.68;100838.94;104905;1306;61246;-83
2022/07/22 01:30:38;;;;;;;;;;;;;;;29.11;38.49;100842.55;104847;1306;61272;-82
2022/07/22 01:33:04;;;;;;;;;;;;;;;29.10;38.65;100842.44;104857;1305;61290;-83
2022/07/22 01:35:29;;;;;;;;;;;;;;;29.11;38.66;100839.48;104905;1305;61322;-83
2022/07/22 01:37:55;;;;;;;;;;;;;;;29.10;38.62;100835.76;104868;1306;61371;-82
2022/07/22 01:40:20;;;;;;;;;;;;;;;29.11;38.71;100837.52;104854;1306;61291;-82
2022/07/22 01:42:45;;;;;;;;;;;;;;;29.10;38.72;100837.01;104869;1305;61281;-82
2022/07/22 01:45:11;;;;;;;;;;;;;;;29.10;38.73;100835.38;104870;1305;61962;-82
2022/07/22 01:47:36;;;;;;;;;;;;;;;29.10;38.59;100836.88;104829;1306;61297;-82
2022/07/22 01:50:03;;;;;;;;;;;;;;;29.10;38.59;100833.27;104852;1306;61375;-82
2022/07/22 01:52:29;;;;;;;;;;;;;;;29.09;38.80;100833.85;104872;1306;61170;-82
2022/07/22 01:54:54;;;;;;;;;;;;;;;29.10;38.74;100831.84;104847;1306;61291;-82
2022/07/22 01:57:20;;;;;;;;;;;;;;;29.09;38.59;100827.16;104905;1306;61264;-82
2022/07/22 01:59:45;;;;;;;;;;;;;;;29.09;38.89;100825.01;104881;1305;61224;-82
2022/07/22 02:02:10;;;;;;;;;;;;;;;29.09;38.64;100826.48;104883;1306;61360;-82
2022/07/22 02:04:36;;;;;;;;;;;;;;;29.09;38.92;100825.77;104872;1306;61271;-82
2022/07/22 02:07:01;;;;;;;;;;;;;;;29.08;38.77;100820.35;104924;1305;61386;-82
2022/07/22 02:09:27;;;;;;;;;;;;;;;29.09;38.78;100820.16;104701;1306;61287;-82
2022/07/22 02:11:53;;;;;;;;;;;;;;;29.08;38.78;100819.81;104839;1306;61362;-80
2022/07/22 02:14:18;;;;;;;;;;;;;;;29.08;38.68;100816.96;104904;1305;61251;-80
2022/07/22 02:16:43;;;;;;;;;;;;;;;29.08;38.80;100814.57;104869;1305;61281;-80
2022/07/22 02:19:09;;;;;;;;;;;;;;;29.08;38.62;100818.59;104867;1306;61306;-82
2022/07/22 02:21:34;;;;;;;;;;;;;;;29.08;38.68;100815.66;104837;1306;61446;-81
2022/07/22 02:24:00;;;;;;;;;;;;;;;29.08;38.81;100814.20;104852;1305;61298;-83
2022/07/22 02:26:25;;;;;;;;;;;;;;;29.09;38.83;100812.73;104923;1306;61302;-83
2022/07/22 02:28:51;;;;;;;;;;;;;;;29.08;38.89;100810.63;104794;1306;61366;-83
2022/07/22 02:31:16;;;;;;;;;;;;;;;29.08;38.71;100817.15;104857;1306;61233;-83
2022/07/22 02:33:42;;;;;;;;;;;;;;;29.08;38.63;100819.64;104854;1305;61302;-81
2022/07/22 02:36:07;;;;;;;;;;;;;;;29.08;38.98;100820.96;104857;1306;61376;-81
2022/07/22 02:38:33;;;;;;;;;;;;;;;29.07;38.94;100825.71;104724;1306;61306;-81
2022/07/22 02:41:00;;;;;;;;;;;;;;;29.07;38.77;100824.84;104709;1306;61281;-81
2022/07/22 02:43:25;;;;;;;;;;;;;;;29.07;38.67;100828.46;104865;1306;61650;-81
2022/07/22 02:45:51;;;;;;;;;;;;;;;29.07;38.68;100825.23;104813;1306;61301;-82
2022/07/22 02:48:16;;;;;;;;;;;;;;;29.07;38.78;100825.95;104831;1306;61389;-82
2022/07/22 02:50:48;;;;;;;;;;;;;;;29.07;38.73;100822.70;104848;1306;61431;-82
2022/07/22 02:53:13;;;;;;;;;;;;;;;29.07;38.55;100823.98;104814;1306;61255;-81
2022/07/22 02:55:39;;;;;;;;;;;;;;;29.06;38.65;100820.75;104836;1306;61243;-81
2022/07/22 02:58:05;;;;;;;;;;;;;;;29.06;38.72;100824.39;104838;1306;61256;-80
2022/07/22 03:00:30;;;;;;;;;;;;;;;29.06;38.69;100825.64;104832;1305;61318;-81
2022/07/22 03:02:56;;;;;;;;;;;;;;;29.06;38.86;100826.73;104869;1306;61306;-81
2022/07/22 03:05:21;;;;;;;;;;;;;;;29.07;38.81;100827.08;104894;1305;61423;-81
2022/07/22 03:07:48;;;;;;;;;;;;;;;29.06;38.91;100831.83;104834;1306;61255;-81
2022/07/22 03:10:13;;;;;;;;;;;;;;;29.06;38.82;100830.02;104783;1306;61404;-81
2022/07/22 03:12:39;;;;;;;;;;;;;;;29.06;38.82;100837.44;104861;1306;61267;-81
2022/07/22 03:15:05;;;;;;;;;;;;;;;29.07;39.01;100836.69;104900;1306;61360;-81
2022/07/22 03:17:32;;;;;;;;;;;;;;;29.06;38.98;100836.17;104836;1306;61169;-81
2022/07/22 03:19:59;;;;;;;;;;;;;;;29.07;38.94;100839.23;104858;1306;61230;-81
2022/07/22 03:22:24;;;;;;;;;;;;;;;29.06;38.84;100837.25;104868;1306;61264;-81
2022/07/22 03:24:50;;;;;;;;;;;;;;;29.06;38.98;100837.25;104890;1306;61279;-81
2022/07/22 03:27:16;;;;;;;;;;;;;;;29.06;38.84;100837.42;104874;1305;61349;-81
2022/07/22 03:29:41;;;;;;;;;;;;;;;29.06;38.88;100838.85;104898;1305;61353;-81
2022/07/22 03:32:07;;;;;;;;;;;;;;;29.07;38.91;100839.95;104852;1305;75746;-81
2022/07/22 03:34:34;;;;;;;;;;;;;;;29.06;38.98;100841.81;104862;1305;61372;-81
2022/07/22 03:37:00;;;;;;;;;;;;;;;29.07;38.68;100844.44;104853;1306;61306;-81
2022/07/22 03:39:26;;;;;;;;;;;;;;;29.07;38.73;100846.77;104839;1306;61343;-81
2022/07/22 03:41:51;;;;;;;;;;;;;;;29.07;38.64;100846.09;104883;1304;61303;-81
2022/07/22 03:44:17;;;;;;;;;;;;;;;29.07;38.70;100845.83;104872;1306;61278;-81
2022/07/22 03:46:42;;;;;;;;;;;;;;;29.07;39.09;100855.27;104868;1305;61250;-82
2022/07/22 03:49:07;;;;;;;;;;;;;;;29.07;38.99;100852.39;104849;1305;61274;-82
2022/07/22 03:51:33;;;;;;;;;;;;;;;29.07;38.87;100851.30;104837;1306;61365;-81
2022/07/22 03:53:58;;;;;;;;;;;;;;;29.07;38.94;100849.48;104829;1306;61274;-81
2022/07/22 03:56:24;;;;;;;;;;;;;;;29.07;38.75;100851.45;104782;1306;61294;-81
2022/07/22 03:58:49;;;;;;;;;;;;;;;29.07;38.98;100851.84;104898;1305;61348;-81
2022/07/22 04:01:15;;;;;;;;;;;;;;;29.08;38.97;100851.42;104846;1306;61301;-81
2022/07/22 04:03:40;;;;;;;;;;;;;;;29.07;38.68;100853.81;104883;1305;61272;-81
2022/07/22 04:06:06;;;;;;;;;;;;;;;29.07;38.97;100853.42;104803;1306;61267;-81
2022/07/22 04:08:32;;;;;;;;;;;;;;;29.07;38.78;100857.77;104916;1306;61710;-81
2022/07/22 04:10:57;;;;;;;;;;;;;;;29.08;38.80;100861.70;104881;1306;61335;-81
2022/07/22 04:13:22;;;;;;;;;;;;;;;29.08;38.88;100856.86;104866;1305;61147;-81
2022/07/22 04:15:48;;;;;;;;;;;;;;;29.08;38.87;100858.98;104845;1306;61261;-81
2022/07/22 04:18:17;;;;;;;;;;;;;;;29.08;38.83;100857.32;104833;1306;61272;-81
2022/07/22 04:20:42;;;;;;;;;;;;;;;29.09;38.86;100860.20;104869;1306;61138;-81
2022/07/22 04:23:08;;;;;;;;;;;;;;;29.09;38.93;100860.69;104873;1306;61287;-81
2022/07/22 04:25:33;;;;;;;;;;;;;;;29.09;38.78;100860.14;104882;1305;61610;-81
2022/07/22 04:27:59;;;;;;;;;;;;;;;29.10;38.95;100858.10;104866;1306;61252;-81
2022/07/22 04:30:24;;;;;;;;;;;;;;;29.10;38.83;100860.59;104930;1305;61284;-81
2022/07/22 04:32:50;;;;;;;;;;;;;;;29.11;38.82;100860.14;104864;1305;61362;-81
2022/07/22 04:35:15;;;;;;;;;;;;;;;29.12;39.03;100859.34;104830;1306;61428;-81
2022/07/22 04:37:41;;;;;;;;;;;;;;;29.11;38.82;100859.95;104871;1306;61291;-81
2022/07/22 04:40:06;;;;;;;;;;;;;;;29.12;38.79;100866.39;104870;1306;61361;-81
2022/07/22 04:42:32;;;;;;;;;;;;;;;29.12;38.77;100866.56;104889;1306;61239;-81
2022/07/22 04:44:57;;;;;;;;;;;;;;;29.14;38.96;100870.42;104818;1306;61272;-81
2022/07/22 04:47:23;;;;;;;;;;;;;;;29.14;38.95;100869.48;104876;1306;61285;-81
2022/07/22 04:49:48;;;;;;;;;;;;;;;29.14;38.88;100875.02;104874;1305;61258;-81
2022/07/22 04:52:14;;;;;;;;;;;;;;;29.15;38.91;100876.20;104862;1305;61380;-81
2022/07/22 04:54:39;;;;;;;;;;;;;;;29.16;38.70;100877.61;104875;1306;61306;-81
2022/07/22 04:57:04;;;;;;;;;;;;;;;29.16;38.75;100872.08;104780;1305;62023;-81
2022/07/22 04:59:30;;;;;;;;;;;;;;;29.17;38.83;100874.52;104858;1306;61778;-81
2022/07/22 05:01:55;;;;;;;;;;;;;;;29.18;38.90;100871.54;104846;1306;61374;-81
2022/07/22 05:04:21;;;;;;;;;;;;;;;29.19;38.98;100871.05;104874;1306;61238;-81
2022/07/22 05:06:46;;;;;;;;;;;;;;;29.20;38.99;100870.80;104896;1306;61256;-81
2022/07/22 05:09:12;;;;;;;;;;;;;;;29.20;38.95;100869.67;104876;1306;61808;-81
2022/07/22 05:11:37;;;;;;;;;;;;;;;29.21;39.25;100868.48;104863;1306;61271;-81
2022/07/22 05:14:02;;;;;;;;;;;;;;;29.22;39.15;100874.55;104779;1306;61305;-81
2022/07/22 05:16:28;;;;;;;;;;;;;;;29.22;39.14;100876.14;104861;1306;61702;-81
2022/07/22 05:18:53;;;;;;;;;;;;;;;29.23;38.94;100873.40;104863;1306;61463;-81
2022/07/22 05:21:19;;;;;;;;;;;;;;;29.24;39.10;100877.27;104857;1305;61255;-81
2022/07/22 05:23:44;;;;;;;;;;;;;;;29.25;39.19;100875.92;104775;1306;61303;-81
2022/07/22 05:26:10;;;;;;;;;;;;;;;29.25;39.07;100878.23;104831;1306;61460;-81
2022/07/22 05:28:35;;;;;;;;;;;;;;;29.26;39.07;100884.66;104849;1306;61255;-80
2022/07/22 05:31:01;;;;;;;;;;;;;;;29.27;39.02;100885.52;104843;1305;59280;-80
2022/07/22 05:33:26;;;;;;;;;;;;;;;29.28;38.99;100883.10;104867;1306;61271;-80
2022/07/22 05:35:51;;;;;;;;;;;;;;;29.28;38.89;100882.89;104860;1306;61287;-80
2022/07/22 05:38:17;;;;;;;;;;;;;;;29.28;39.02;100884.90;104805;1305;61226;-80
2022/07/22 05:40:42;;;;;;;;;;;;;;;29.29;38.80;100887.85;104805;1306;61252;-81
2022/07/22 05:43:08;;;;;;;;;;;;;;;29.29;39.00;100893.09;104812;1306;75795;-81
2022/07/22 05:45:34;;;;;;;;;;;;;;;29.30;38.81;100891.91;104785;1305;61284;-81
2022/07/22 05:48:00;;;;;;;;;;;;;;;29.30;38.65;100892.63;104625;1304;61944;-81
2022/07/22 05:50:26;;;;;;;;;;;;;;;29.30;38.55;100893.88;104658;1305;61243;-81
2022/07/22 05:52:52;;;;;;;;;;;;;;;29.31;38.57;100889.27;104760;1305;61296;-81
2022/07/22 05:55:17;;;;;;;;;;;;;;;29.32;38.68;100891.21;104806;1306;61236;-81
2022/07/22 05:57:43;;;;;;;;;;;;;;;29.32;38.31;100898.00;104735;1304;61342;-81
2022/07/22 06:00:08;;;;;;;;;;;;;;;29.33;38.34;100900.15;104653;1305;61415;-81
2022/07/22 06:02:34;;;;;;;;;;;;;;;29.33;38.22;100901.34;104802;1304;61226;-81
2022/07/22 06:05:00;;;;;;;;;;;;;;;29.34;38.22;100903.62;104860;1306;61365;-83
2022/07/22 06:07:26;;;;;;;;;;;;;;;29.35;38.05;100899.17;104850;1306;61272;-81
2022/07/22 06:09:51;;;;;;;;;;;;;;;29.34;37.90;100900.86;104847;1304;61234;-82
2022/07/22 06:12:17;;;;;;;;;;;;;;;29.35;37.96;100902.44;104864;1306;61241;-83
2022/07/22 06:14:42;;;;;;;;;;;;;;;29.35;37.74;100899.57;104836;1305;72833;-83
2022/07/22 06:17:08;;;;;;;;;;;;;;;29.35;37.77;100906.58;104822;1306;61292;-80
2022/07/22 06:19:33;;;;;;;;;;;;;;;29.36;37.58;100904.38;104829;1306;61256;-83
2022/07/22 06:21:59;;;;;;;;;;;;;;;29.36;37.47;100909.64;104855;1305;61448;-82
2022/07/22 06:24:24;;;;;;;;;;;;;;;29.35;37.35;100903.69;104891;1306;61414;-82
2022/07/22 06:26:50;;;;;;;;;;;;;;;29.35;37.44;100903.15;104807;1306;61271;-81
2022/07/22 06:29:15;;;;;;;;;;;;;;;29.35;37.26;100904.23;104156;1305;926904;-83
2022/07/22 06:31:41;;;;;;;;;;;;;;;29.35;36.94;100901.69;104848;1306;61294;-82
2022/07/22 06:34:06;;;;;;;;;;;;;;;29.35;36.98;100898.09;104847;1305;61285;-82
2022/07/22 06:36:32;;;;;;;;;;;;;;;29.35;36.96;100905.87;104880;1305;61350;-81
2022/07/22 06:38:58;;;;;;;;;;;;;;;29.35;36.83;100905.13;104823;1304;72856;-81
2022/07/22 06:41:24;;;;;;;;;;;;;;;29.36;36.75;100903.27;104831;1306;61279;-81
2022/07/22 06:43:49;;;;;;;;;;;;;;;29.35;36.70;100906.21;104810;1306;61289;-81
2022/07/22 06:46:15;;;;;;;;;;;;;;;29.36;36.53;100905.27;104816;1306;61387;-81
2022/07/22 06:48:40;;;;;;;;;;;;;;;29.36;36.31;100903.80;104874;1306;61297;-81
2022/07/22 06:51:06;;;;;;;;;;;;;;;29.36;36.35;100903.20;104782;1306;72833;-81
2022/07/22 06:53:32;;;;;;;;;;;;;;;29.36;36.14;100903.58;104858;1306;61380;-82
2022/07/22 06:55:57;;;;;;;;;;;;;;;29.36;36.07;100907.02;104837;1306;61261;-83
2022/07/22 06:58:23;;;;;;;;;;;;;;;29.37;36.14;100907.10;104846;1305;61301;-82
2022/07/22 07:00:48;;;;;;;;;;;;;;;29.37;36.26;100905.65;104831;1306;61219;-82
2022/07/22 07:03:14;;;;;;;;;;;;;;;29.38;36.05;100906.14;104806;1306;61278;-83
2022/07/22 07:05:39;;;;;;;;;;;;;;;29.37;35.92;100902.41;104667;1306;61249;-82
2022/07/22 07:08:05;;;;;;;;;;;;;;;29.38;35.86;100907.75;104712;1306;61314;-82
2022/07/22 07:10:30;;;;;;;;;;;;;;;29.38;35.71;100902.45;104784;1305;61422;-82
2022/07/22 07:12:58;;;;;;;;;;;;;;;29.39;35.72;100902.73;104758;1306;61399;-82
2022/07/22 07:15:24;;;;;;;;;;;;;;;29.39;35.71;100901.80;104785;1306;61369;-82
2022/07/22 07:17:50;;;;;;;;;;;;;;;29.40;35.38;100900.83;104773;1306;61230;-82
2022/07/22 07:20:15;;;;;;;;;;;;;;;29.40;35.63;100907.90;104684;1306;61302;-82
2022/07/22 07:22:40;;;;;;;;;;;;;;;29.40;35.42;100901.92;104777;1306;61357;-83
2022/07/22 07:25:07;;;;;;;;;;;;;;;29.40;35.44;100902.40;104612;1305;61356;-82
2022/07/22 07:27:32;;;;;;;;;;;;;;;29.40;35.41;100902.75;104742;1306;61269;-82
2022/07/22 07:29:58;;;;;;;;;;;;;;;29.41;35.37;100905.75;104781;1305;61403;-82
2022/07/22 07:32:24;;;;;;;;;;;;;;;29.41;35.30;100904.64;104798;1305;61242;-82
2022/07/22 07:34:49;;;;;;;;;;;;;;;29.42;35.20;100906.77;104793;1305;61411;-82
2022/07/22 07:37:15;;;;;;;;;;;;;;;29.42;35.26;100906.04;104942;1306;61341;-82
2022/07/22 07:39:41;;;;;;;;;;;;;;;29.42;35.14;100909.65;104933;1305;75870;-82
2022/07/22 07:42:06;;;;;;;;;;;;;;;29.43;34.84;100906.87;104996;1305;59487;-82
2022/07/22 07:44:32;;;;;;;;;;;;;;;29.43;35.23;100902.82;105029;1306;61320;-82
2022/07/22 07:46:57;;;;;;;;;;;;;;;29.44;34.99;100900.61;105049;1305;61329;-82
2022/07/22 07:49:23;;;;;;;;;;;;;;;29.44;35.00;100897.52;105139;1305;61287;-82
2022/07/22 07:51:49;;;;;;;;;;;;;;;29.44;35.05;100900.23;105179;1305;74737;-82
2022/07/22 07:54:15;;;;;;;;;;;;;;;29.44;35.05;100899.32;105205;1306;61360;-83
2022/07/22 07:56:40;;;;;;;;;;;;;;;29.44;34.92;100906.02;104767;1305;61223;-82
2022/07/22 07:59:06;;;;;;;;;;;;;;;29.45;34.93;100902.35;104711;1305;61268;-82
2022/07/22 08:01:32;;;;;;;;;;;;;;;29.45;34.84;100901.98;104745;1305;61417;-82
2022/07/22 08:03:57;;;;;;;;;;;;;;;29.45;34.80;100902.61;104815;1305;61280;-82
2022/07/22 08:06:22;;;;;;;;;;;;;;;29.45;34.69;100898.46;104817;1306;61332;-82
2022/07/22 08:08:48;;;;;;;;;;;;;;;29.46;34.58;100900.77;104808;1305;61255;-82
2022/07/22 08:11:13;;;;;;;;;;;;;;;29.46;34.82;100905.08;104769;1306;61282;-82
2022/07/22 08:13:39;;;;;;;;;;;;;;;29.46;34.59;100900.73;104872;1304;61246;-82
2022/07/22 08:16:04;;;;;;;;;;;;;;;29.46;34.65;100900.59;104792;1306;74388;-81
2022/07/22 08:18:30;;;;;;;;;;;;;;;29.47;34.64;100898.69;104742;1305;61699;-82
2022/07/22 08:20:55;;;;;;;;;;;;;;;29.47;34.53;100897.25;104758;1306;61301;-81
2022/07/22 08:23:21;;;;;;;;;;;;;;;29.46;34.60;100895.48;104813;1305;61364;-81
2022/07/22 08:25:46;;;;;;;;;;;;;;;29.46;34.64;100899.29;104891;1304;61342;-81
2022/07/22 08:28:11;;;;;;;;;;;;;;;29.46;34.60;100897.09;104819;1306;61383;-82
2022/07/22 08:30:37;;;;;;;;;;;;;;;29.46;34.51;100897.83;104838;1305;61425;-82
2022/07/22 08:33:03;;;;;;;;;;;;;;;29.46;34.47;100891.14;104788;1305;61358;-82
2022/07/22 08:35:28;;;;;;;;;;;;;;;29.46;34.68;100898.91;104787;1306;61275;-82
2022/07/22 08:37:53;;;;;;;;;;;;;;;29.46;34.44;100900.71;104871;1305;61245;-82
2022/07/22 08:40:19;;;;;;;;;;;;;;;29.46;34.43;100896.20;104815;1305;74828;-82
2022/07/22 08:42:45;;;;;;;;;;;;;;;29.46;34.66;100893.31;104833;1306;62032;-82
2022/07/22 08:45:10;;;;;;;;;;;;;;;29.46;34.39;100892.75;104825;1306;61357;-82
2022/07/22 08:47:36;;;;;;;;;;;;;;;29.46;34.43;100896.91;104809;1306;61268;-82
2022/07/22 08:50:02;;;;;;;;;;;;;;;29.46;34.46;100894.94;104851;1304;61239;-82
2022/07/22 08:52:28;;;;;;;;;;;;;;;29.46;34.54;100892.20;104847;1304;61301;-82
2022/07/22 08:54:53;;;;;;;;;;;;;;;29.46;34.50;100891.10;104886;1306;61387;-82
2022/07/22 08:57:19;;;;;;;;;;;;;;;29.46;34.38;100898.71;104805;1305;61686;-82
2022/07/22 08:59:48;;;;;;;;;;;;;;;29.47;34.29;100897.94;104773;1304;61247;-82
2022/07/22 09:02:14;;;;;;;;;;;;;;;29.47;34.27;100896.48;104691;1306;75259;-82
2022/07/22 09:04:56;;;;;;;;;;;;;;;29.47;34.43;100894.47;104790;1306;61352;-82
2022/07/22 09:07:23;;;;;;;;;;;;;;;29.47;34.42;100897.91;104711;1306;61616;-82
2022/07/22 09:09:49;;;;;;;;;;;;;;;29.47;34.35;100897.73;104760;1306;61380;-82
2022/07/22 09:12:14;;;;;;;;;;;;;;;29.48;34.34;100900.39;104798;1305;61243;-82
2022/07/22 09:14:44;;;;;;;;;;;;;;;29.47;34.41;100893.22;104751;1306;61291;-82
2022/07/22 09:17:21;;;;;;;;;;;;;;;29.48;34.31;100896.35;105464;1305;60449;-82
2022/07/22 09:19:47;;;;;;;;;;;;;;;29.49;34.42;100893.23;104671;1306;73748;-82
2022/07/22 09:22:12;;;;;;;;;;;;;;;29.49;34.38;100892.23;104707;1306;61292;-82
2022/07/22 09:24:38;;;;;;;;;;;;;;;29.50;34.30;100895.65;104821;1305;61219;-82
2022/07/22 09:27:03;;;;;;;;;;;;;;;29.50;34.31;100889.23;104792;1305;61282;-82
2022/07/22 09:29:29;;;;;;;;;;;;;;;29.51;34.52;100889.17;104849;1304;61261;-82
2022/07/22 09:31:55;;;;;;;;;;;;;;;29.51;34.26;100885.75;104824;1306;72773;-82
2022/07/22 09:34:27;;;;;;;;;;;;;;;29.51;34.43;100888.05;104631;1304;61355;-82
2022/07/22 09:36:56;;;;;;;;;;;;;;;29.51;34.29;100884.77;104901;1305;61288;-82
2022/07/22 09:39:25;;;;;;;;;;;;;;;29.52;34.33;100879.42;104708;1306;62607;-82
2022/07/22 09:42:01;;;;;;;;;;;;;;;29.52;34.43;100882.73;104766;1305;73821;-82
2022/07/22 09:44:26;;;;;;;;;;;;;;;29.52;34.30;100877.46;104726;1306;75799;-82
2022/07/22 09:46:52;;;;;;;;;;;;;;;29.53;34.40;100874.09;104662;1306;61287;-82
2022/07/22 09:49:30;;;;;;;;;;;;;;;29.53;34.47;100870.33;104657;1306;61259;-82
2022/07/22 09:51:56;;;;;;;;;;;;;;;29.52;34.51;100867.96;104810;1306;75135;-82
2022/07/22 09:54:22;;;;;;;;;;;;;;;29.52;34.59;100868.73;104719;1305;61275;-82
2022/07/22 09:56:47;;;;;;;;;;;;;;;29.52;34.43;100866.52;104762;1305;61209;-82
2022/07/22 09:59:13;;;;;;;;;;;;;;;29.52;34.37;100870.55;104834;1306;61275;-82
2022/07/22 10:01:38;;;;;;;;;;;;;;;29.52;34.51;100873.06;104769;1306;61371;-82
2022/07/22 10:04:05;;;;;;;;;;;;;;;29.52;34.53;100870.55;104843;1306;61239;-82
2022/07/22 10:06:30;;;;;;;;;;;;;;;29.52;34.37;100868.42;104815;1306;75717;-82
2022/07/22 10:08:56;;;;;;;;;;;;;;;29.51;34.47;100871.68;104821;1306;63227;-82
2022/07/22 10:11:21;;;;;;;;;;;;;;;29.51;34.49;100863.72;104790;1306;61749;-82
2022/07/22 10:13:47;;;;;;;;;;;;;;;29.51;34.40;100864.50;104808;1306;61249;-82
2022/07/22 10:16:13;;;;;;;;;;;;;;;29.50;34.56;100874.73;104634;1305;61265;-82
2022/07/22 10:18:39;;;;;;;;;;;;;;;29.50;34.45;100873.70;104677;1305;61365;-82
2022/07/22 10:21:06;;;;;;;;;;;;;;;29.50;34.46;100867.12;104620;1306;61310;-82
2022/07/22 10:23:32;;;;;;;;;;;;;;;29.50;34.44;100866.98;104803;1306;61782;-82
2022/07/22 10:25:58;;;;;;;;;;;;;;;29.50;34.32;100858.80;104766;1306;61295;-82
2022/07/22 10:28:28;;;;;;;;;;;;;;;29.50;34.51;100861.52;104846;1306;61253;-81
2022/07/22 10:30:54;;;;;;;;;;;;;;;29.49;34.54;100852.16;104741;1305;61500;-82
2022/07/22 10:33:20;;;;;;;;;;;;;;;29.50;34.42;100856.48;104869;1305;61344;-82
2022/07/22 10:35:53;;;;;;;;;;;;;;;29.49;34.48;100857.63;104749;1306;62033;-82
2022/07/22 10:38:21;;;;;;;;;;;;;;;29.49;34.48;100857.42;104694;1305;75305;-82
2022/07/22 10:40:50;;;;;;;;;;;;;;;29.50;34.32;100861.34;104758;1306;61200;-82
2022/07/22 10:43:16;;;;;;;;;;;;;;;29.50;34.46;100864.44;104697;1305;61190;-82
2022/07/22 10:45:52;;;;;;;;;;;;;;;29.50;34.49;100857.58;104569;1306;61351;-82
2022/07/22 10:48:30;;;;;;;;;;;;;;;29.50;34.43;100853.90;104760;1306;76290;-82
2022/07/22 10:51:05;;;;;;;;;;;;;;;29.50;34.39;100858.62;104767;1306;61281;-82
2022/07/22 10:53:43;;;;;;;;;;;;;;;29.50;34.52;100853.76;104722;1305;61514;-82
2022/07/22 10:56:12;;;;;;;;;;;;;;;29.49;34.54;100855.42;104763;1306;72669;-82
2022/07/22 10:58:38;;;;;;;;;;;;;;;29.49;34.36;100856.30;104798;1306;74991;-82
2022/07/22 11:01:04;;;;;;;;;;;;;;;29.50;34.48;100851.21;104765;1304;61696;-82
2022/07/22 11:03:30;;;;;;;;;;;;;;;29.49;34.14;100849.44;104641;1305;61558;-82
2022/07/22 11:05:56;;;;;;;;;;;;;;;29.50;34.56;100856.14;104597;1305;59347;-82
2022/07/22 11:08:21;;;;;;;;;;;;;;;29.49;34.43;100847.84;104612;1305;59502;-82
2022/07/22 11:10:48;;;;;;;;;;;;;;;29.50;34.34;100847.94;105477;1305;59168;-82
2022/07/22 11:13:30;;;;;;;;;;;;;;;29.50;34.54;100845.70;104593;1306;61349;-82
2022/07/22 11:15:55;;;;;;;;;;;;;;;29.51;34.49;100845.30;104674;1305;72728;-82
2022/07/22 11:18:21;;;;;;;;;;;;;;;29.52;34.53;100844.66;104668;1305;61382;-82
2022/07/22 11:20:47;;;;;;;;;;;;;;;29.52;34.48;100842.98;104727;1306;61361;-82
2022/07/22 11:23:13;;;;;;;;;;;;;;;29.52;34.55;100838.97;104765;1305;61297;-81
2022/07/22 11:25:39;;;;;;;;;;;;;;;29.52;34.45;100834.79;104758;1305;61279;-82
2022/07/22 11:28:04;;;;;;;;;;;;;;;29.52;34.28;100833.73;104822;1306;61223;-82
2022/07/22 11:30:30;;;;;;;;;;;;;;;29.52;34.40;100833.02;104843;1306;61714;-82
2022/07/22 11:32:55;;;;;;;;;;;;;;;29.52;34.29;100835.06;104797;1306;61144;-82
2022/07/22 11:35:21;;;;;;;;;;;;;;;29.51;34.38;100834.73;104848;1305;61339;-82
2022/07/22 11:37:54;;;;;;;;;;;;;;;29.51;34.36;100842.58;104825;1306;61281;-82
2022/07/22 11:40:20;;;;;;;;;;;;;;;29.50;34.37;100836.80;104852;1304;76911;-82
2022/07/22 11:42:45;;;;;;;;;;;;;;;29.50;34.41;100835.72;104931;1304;61262;-82
2022/07/22 11:45:11;;;;;;;;;;;;;;;29.50;34.46;100828.55;104825;1304;61357;-82
2022/07/22 11:47:36;;;;;;;;;;;;;;;29.50;34.33;100822.02;104826;1306;61386;-82
2022/07/22 11:50:02;;;;;;;;;;;;;;;29.50;34.58;100824.77;104864;1305;61235;-82
2022/07/22 11:52:27;;;;;;;;;;;;;;;29.50;34.45;100825.67;104851;1305;73682;-82
2022/07/22 11:54:53;;;;;;;;;;;;;;;29.49;34.59;100821.87;104867;1305;61248;-82
2022/07/22 11:57:18;;;;;;;;;;;;;;;29.50;34.57;100815.69;104870;1306;61259;-82
2022/07/22 11:59:44;;;;;;;;;;;;;;;29.49;34.43;100812.63;104814;1305;61274;-82
2022/07/22 12:02:11;;;;;;;;;;;;;;;29.49;34.28;100806.67;104880;1306;61390;-82
2022/07/22 12:04:37;;;;;;;;;;;;;;;29.50;34.48;100806.45;104852;1305;75699;-82
2022/07/22 12:07:02;;;;;;;;;;;;;;;29.49;34.45;100809.20;104853;1306;61233;-82
2022/07/22 12:09:38;;;;;;;;;;;;;;;29.49;34.49;100805.05;104855;1305;61255;-82
2022/07/22 12:12:06;;;;;;;;;;;;;;;29.49;34.47;100803.93;104860;1304;73842;-82
2022/07/22 12:14:32;;;;;;;;;;;;;;;29.50;34.53;100799.21;104772;1306;73672;-82
2022/07/22 12:17:03;;;;;;;;;;;;;;;29.49;34.68;100796.30;104794;1306;61348;-82
2022/07/22 12:19:30;;;;;;;;;;;;;;;29.50;34.58;100800.27;104847;1305;61266;-82